Terminal Aerodrome Forecast
Issued by NWS

Current Version | Previous Version | Text Only | Print | Product List | Glossary On
Versions: 1 2 3 4 5 6 7 8 9 10 11 12 13 14 15 16 17 18 19
000
FTUS43 KAPX 162327
TAFMBL
TAF
KMBL 162327Z 1700/1724 16003KT P6SM FEW250
     FM170600 23007KT P6SM FEW250 WS015/24040KT
     FM171300 23009G17KT P6SM SKC
     FM171900 24008KT P6SM SKC=

USA.gov is the U.S. government's official web portal to all federal, state and local government web resources and services.